sensor_id;sensor_type;location;lat;lon;timestamp;temperature;humidity
11855;DHT22;5987;53.140;8.904;2023-08-06T00:00:12;14.50;99.90
11855;DHT22;5987;53.140;8.904;2023-08-06T00:03:17;14.40;99.90
11855;DHT22;5987;53.140;8.904;2023-08-06T00:06:21;14.30;99.90
11855;DHT22;5987;53.140;8.904;2023-08-06T00:09:25;14.40;99.90
11855;DHT22;5987;53.140;8.904;2023-08-06T00:12:28;14.40;99.90
11855;DHT22;5987;53.140;8.904;2023-08-06T00:15:32;14.40;99.90
11855;DHT22;5987;53.140;8.904;2023-08-06T00:18:37;14.40;99.90
11855;DHT22;5987;53.140;8.904;2023-08-06T00:21:41;14.50;99.90
11855;DHT22;5987;53.140;8.904;2023-08-06T00:24:45;14.50;99.90
11855;DHT22;5987;53.140;8.904;2023-08-06T00:27:49;14.60;99.90
11855;DHT22;5987;53.140;8.904;2023-08-06T00:30:53;14.60;99.90
11855;DHT22;5987;53.140;8.904;2023-08-06T00:33:58;14.60;99.90
11855;DHT22;5987;53.140;8.904;2023-08-06T00:37:02;14.60;99.90
11855;DHT22;5987;53.140;8.904;2023-08-06T00:40:07;14.50;99.90
11855;DHT22;5987;53.140;8.904;2023-08-06T00:43:11;14.40;99.90
11855;DHT22;5987;53.140;8.904;2023-08-06T00:46:15;14.50;99.90
11855;DHT22;5987;53.140;8.904;2023-08-06T00:49:20;14.50;99.90
11855;DHT22;5987;53.140;8.904;2023-08-06T00:52:25;14.60;99.90
11855;DHT22;5987;53.140;8.904;2023-08-06T00:55:29;14.50;99.90
11855;DHT22;5987;53.140;8.904;2023-08-06T00:58:33;14.60;99.90
11855;DHT22;5987;53.140;8.904;2023-08-06T01:01:39;14.50;99.90
11855;DHT22;5987;53.140;8.904;2023-08-06T01:04:44;14.40;99.90
11855;DHT22;5987;53.140;8.904;2023-08-06T01:07:56;14.60;99.90
11855;DHT22;5987;53.140;8.904;2023-08-06T01:11:21;14.60;99.90
11855;DHT22;5987;53.140;8.904;2023-08-06T01:14:33;14.50;99.90
11855;DHT22;5987;53.140;8.904;2023-08-06T01:17:45;14.60;99.90
11855;DHT22;5987;53.140;8.904;2023-08-06T01:20:50;14.60;99.90
11855;DHT22;5987;53.140;8.904;2023-08-06T01:23:54;14.60;99.90
11855;DHT22;5987;53.140;8.904;2023-08-06T01:27:03;14.70;99.90
11855;DHT22;5987;53.140;8.904;2023-08-06T01:30:12;14.60;99.90
11855;DHT22;5987;53.140;8.904;2023-08-06T01:33:21;14.60;99.90
11855;DHT22;5987;53.140;8.904;2023-08-06T01:36:28;14.50;99.90
11855;DHT22;5987;53.140;8.904;2023-08-06T01:39:33;14.50;99.90
11855;DHT22;5987;53.140;8.904;2023-08-06T01:42:37;14.60;99.90
11855;DHT22;5987;53.140;8.904;2023-08-06T01:45:41;14.60;99.90
11855;DHT22;5987;53.140;8.904;2023-08-06T01:48:45;14.60;99.90
11855;DHT22;5987;53.140;8.904;2023-08-06T01:51:50;14.60;99.90
11855;DHT22;5987;53.140;8.904;2023-08-06T01:54:54;14.70;99.90
11855;DHT22;5987;53.140;8.904;2023-08-06T01:57:58;14.70;99.90
11855;DHT22;5987;53.140;8.904;2023-08-06T02:01:02;14.70;99.90
11855;DHT22;5987;53.140;8.904;2023-08-06T02:04:05;14.60;99.90
11855;DHT22;5987;53.140;8.904;2023-08-06T02:07:10;14.60;99.90
11855;DHT22;5987;53.140;8.904;2023-08-06T02:10:14;14.60;99.90
11855;DHT22;5987;53.140;8.904;2023-08-06T02:13:18;14.60;99.90
11855;DHT22;5987;53.140;8.904;2023-08-06T02:16:22;14.60;99.90
11855;DHT22;5987;53.140;8.904;2023-08-06T02:19:25;14.70;99.90
11855;DHT22;5987;53.140;8.904;2023-08-06T02:22:31;14.60;99.90
11855;DHT22;5987;53.140;8.904;2023-08-06T02:25:35;14.50;99.90
11855;DHT22;5987;53.140;8.904;2023-08-06T02:28:39;14.50;99.90
11855;DHT22;5987;53.140;8.904;2023-08-06T02:31:42;14.50;99.90
11855;DHT22;5987;53.140;8.904;2023-08-06T02:34:46;14.50;99.90
11855;DHT22;5987;53.140;8.904;2023-08-06T02:37:51;14.50;99.90
11855;DHT22;5987;53.140;8.904;2023-08-06T02:40:55;14.50;99.90
11855;DHT22;5987;53.140;8.904;2023-08-06T02:43:58;14.60;99.90
11855;DHT22;5987;53.140;8.904;2023-08-06T02:47:02;14.60;99.90
11855;DHT22;5987;53.140;8.904;2023-08-06T02:50:07;14.40;99.90
11855;DHT22;5987;53.140;8.904;2023-08-06T02:53:12;14.40;99.90
11855;DHT22;5987;53.140;8.904;2023-08-06T02:56:16;14.40;99.90
11855;DHT22;5987;53.140;8.904;2023-08-06T02:59:19;14.50;99.90
11855;DHT22;5987;53.140;8.904;2023-08-06T03:02:23;14.40;99.90
11855;DHT22;5987;53.140;8.904;2023-08-06T03:05:27;14.40;99.90
11855;DHT22;5987;53.140;8.904;2023-08-06T03:08:32;14.40;99.90
11855;DHT22;5987;53.140;8.904;2023-08-06T03:11:35;14.30;99.90
11855;DHT22;5987;53.140;8.904;2023-08-06T03:14:39;14.30;99.90
11855;DHT22;5987;53.140;8.904;2023-08-06T03:17:43;14.30;99.90
11855;DHT22;5987;53.140;8.904;2023-08-06T03:20:47;14.20;99.90
11855;DHT22;5987;53.140;8.904;2023-08-06T03:23:52;14.30;99.90
11855;DHT22;5987;53.140;8.904;2023-08-06T03:26:56;14.20;99.90
11855;DHT22;5987;53.140;8.904;2023-08-06T03:29:59;14.30;99.90
11855;DHT22;5987;53.140;8.904;2023-08-06T03:33:03;14.30;99.90
11855;DHT22;5987;53.140;8.904;2023-08-06T03:36:07;14.20;99.90
11855;DHT22;5987;53.140;8.904;2023-08-06T03:39:12;14.20;99.90
11855;DHT22;5987;53.140;8.904;2023-08-06T03:42:16;14.20;99.90
11855;DHT22;5987;53.140;8.904;2023-08-06T03:45:20;14.20;99.90
11855;DHT22;5987;53.140;8.904;2023-08-06T03:48:24;14.20;99.90
11855;DHT22;5987;53.140;8.904;2023-08-06T03:51:28;14.20;99.90
11855;DHT22;5987;53.140;8.904;2023-08-06T03:54:33;14.20;99.90
11855;DHT22;5987;53.140;8.904;2023-08-06T03:57:37;14.20;99.90
11855;DHT22;5987;53.140;8.904;2023-08-06T04:00:40;14.20;99.90
11855;DHT22;5987;53.140;8.904;2023-08-06T04:03:44;14.20;99.90
11855;DHT22;5987;53.140;8.904;2023-08-06T04:06:48;14.30;99.90
11855;DHT22;5987;53.140;8.904;2023-08-06T04:09:54;14.20;99.90
11855;DHT22;5987;53.140;8.904;2023-08-06T04:13:00;14.20;99.90
11855;DHT22;5987;53.140;8.904;2023-08-06T04:16:04;14.30;99.90
11855;DHT22;5987;53.140;8.904;2023-08-06T04:19:08;14.30;99.90
11855;DHT22;5987;53.140;8.904;2023-08-06T04:22:12;14.30;99.90
11855;DHT22;5987;53.140;8.904;2023-08-06T04:25:17;14.40;99.90
11855;DHT22;5987;53.140;8.904;2023-08-06T04:28:23;14.50;99.90
11855;DHT22;5987;53.140;8.904;2023-08-06T04:31:26;14.50;99.90
11855;DHT22;5987;53.140;8.904;2023-08-06T04:34:33;14.50;99.90
11855;DHT22;5987;53.140;8.904;2023-08-06T04:37:37;14.50;99.90
11855;DHT22;5987;53.140;8.904;2023-08-06T04:40:42;14.50;99.90
11855;DHT22;5987;53.140;8.904;2023-08-06T04:43:46;14.60;99.90
11855;DHT22;5987;53.140;8.904;2023-08-06T04:46:50;14.60;99.90
11855;DHT22;5987;53.140;8.904;2023-08-06T04:49:53;14.50;99.90
11855;DHT22;5987;53.140;8.904;2023-08-06T04:52:57;14.50;99.90
11855;DHT22;5987;53.140;8.904;2023-08-06T04:56:02;14.60;99.90
11855;DHT22;5987;53.140;8.904;2023-08-06T04:59:06;14.70;99.90
11855;DHT22;5987;53.140;8.904;2023-08-06T05:02:10;14.70;99.90
11855;DHT22;5987;53.140;8.904;2023-08-06T05:05:14;14.70;99.90
11855;DHT22;5987;53.140;8.904;2023-08-06T05:08:17;14.70;99.90
11855;DHT22;5987;53.140;8.904;2023-08-06T05:11:23;14.70;99.90
11855;DHT22;5987;53.140;8.904;2023-08-06T05:14:27;14.70;99.90
11855;DHT22;5987;53.140;8.904;2023-08-06T05:17:31;14.90;99.90
11855;DHT22;5987;53.140;8.904;2023-08-06T05:20:36;14.90;99.90
11855;DHT22;5987;53.140;8.904;2023-08-06T05:23:40;14.90;99.90
11855;DHT22;5987;53.140;8.904;2023-08-06T05:26:45;14.90;99.90
11855;DHT22;5987;53.140;8.904;2023-08-06T05:29:49;14.90;99.90
11855;DHT22;5987;53.140;8.904;2023-08-06T05:32:57;14.80;99.90
11855;DHT22;5987;53.140;8.904;2023-08-06T05:36:01;14.80;99.90
11855;DHT22;5987;53.140;8.904;2023-08-06T05:39:05;15.00;99.90
11855;DHT22;5987;53.140;8.904;2023-08-06T05:42:10;14.90;99.90
11855;DHT22;5987;53.140;8.904;2023-08-06T05:45:15;14.90;99.90
11855;DHT22;5987;53.140;8.904;2023-08-06T05:48:19;14.90;99.90
11855;DHT22;5987;53.140;8.904;2023-08-06T05:51:26;15.00;99.90
11855;DHT22;5987;53.140;8.904;2023-08-06T05:54:31;15.00;99.90
11855;DHT22;5987;53.140;8.904;2023-08-06T05:57:36;15.00;99.90
11855;DHT22;5987;53.140;8.904;2023-08-06T06:00:39;15.10;99.90
11855;DHT22;5987;53.140;8.904;2023-08-06T06:03:43;15.10;99.90
11855;DHT22;5987;53.140;8.904;2023-08-06T06:06:46;15.20;99.90
11855;DHT22;5987;53.140;8.904;2023-08-06T06:09:50;15.30;99.90
11855;DHT22;5987;53.140;8.904;2023-08-06T06:12:55;15.20;99.90
11855;DHT22;5987;53.140;8.904;2023-08-06T06:15:59;15.20;99.90
11855;DHT22;5987;53.140;8.904;2023-08-06T06:19:03;15.30;99.90
11855;DHT22;5987;53.140;8.904;2023-08-06T06:22:06;15.40;99.90
11855;DHT22;5987;53.140;8.904;2023-08-06T06:25:10;15.30;99.90
11855;DHT22;5987;53.140;8.904;2023-08-06T06:28:15;15.40;99.90
11855;DHT22;5987;53.140;8.904;2023-08-06T06:31:19;15.40;99.90
11855;DHT22;5987;53.140;8.904;2023-08-06T06:34:22;15.40;99.90
11855;DHT22;5987;53.140;8.904;2023-08-06T06:37:26;15.50;99.90
11855;DHT22;5987;53.140;8.904;2023-08-06T06:40:30;15.60;99.90
11855;DHT22;5987;53.140;8.904;2023-08-06T06:43:36;15.80;99.90
11855;DHT22;5987;53.140;8.904;2023-08-06T06:46:41;15.70;99.90
11855;DHT22;5987;53.140;8.904;2023-08-06T06:49:45;15.70;99.90
11855;DHT22;5987;53.140;8.904;2023-08-06T06:52:48;15.70;99.90
11855;DHT22;5987;53.140;8.904;2023-08-06T06:55:52;15.80;99.90
11855;DHT22;5987;53.140;8.904;2023-08-06T06:58:57;15.80;99.90
11855;DHT22;5987;53.140;8.904;2023-08-06T07:02:01;15.70;99.90
11855;DHT22;5987;53.140;8.904;2023-08-06T07:05:05;15.80;99.90
11855;DHT22;5987;53.140;8.904;2023-08-06T07:08:09;15.80;99.90
11855;DHT22;5987;53.140;8.904;2023-08-06T07:11:13;15.50;99.90
11855;DHT22;5987;53.140;8.904;2023-08-06T07:14:18;15.60;99.90
11855;DHT22;5987;53.140;8.904;2023-08-06T07:17:22;16.00;99.90
11855;DHT22;5987;53.140;8.904;2023-08-06T07:20:26;16.20;99.90
11855;DHT22;5987;53.140;8.904;2023-08-06T07:23:31;16.30;99.90
11855;DHT22;5987;53.140;8.904;2023-08-06T07:26:34;16.50;99.90
11855;DHT22;5987;53.140;8.904;2023-08-06T07:29:40;16.60;99.90
11855;DHT22;5987;53.140;8.904;2023-08-06T07:32:43;16.80;99.90
11855;DHT22;5987;53.140;8.904;2023-08-06T07:35:47;16.90;99.90
11855;DHT22;5987;53.140;8.904;2023-08-06T07:38:51;16.80;99.90
11855;DHT22;5987;53.140;8.904;2023-08-06T07:41:58;17.00;99.90
11855;DHT22;5987;53.140;8.904;2023-08-06T07:45:03;17.10;99.90
11855;DHT22;5987;53.140;8.904;2023-08-06T07:48:07;16.90;99.90
11855;DHT22;5987;53.140;8.904;2023-08-06T07:51:11;16.90;99.90
11855;DHT22;5987;53.140;8.904;2023-08-06T07:54:15;17.00;99.90
11855;DHT22;5987;53.140;8.904;2023-08-06T07:57:19;17.10;99.90
11855;DHT22;5987;53.140;8.904;2023-08-06T08:00:27;17.10;99.90
11855;DHT22;5987;53.140;8.904;2023-08-06T08:03:31;16.90;99.90
11855;DHT22;5987;53.140;8.904;2023-08-06T08:06:34;17.40;99.90
11855;DHT22;5987;53.140;8.904;2023-08-06T08:09:38;17.60;99.90
11855;DHT22;5987;53.140;8.904;2023-08-06T08:12:42;18.10;99.90
11855;DHT22;5987;53.140;8.904;2023-08-06T08:15:47;18.30;99.90
11855;DHT22;5987;53.140;8.904;2023-08-06T08:18:51;18.30;99.90
11855;DHT22;5987;53.140;8.904;2023-08-06T08:21:55;18.50;99.90
11855;DHT22;5987;53.140;8.904;2023-08-06T08:24:58;18.90;99.90
11855;DHT22;5987;53.140;8.904;2023-08-06T08:28:02;19.20;99.90
11855;DHT22;5987;53.140;8.904;2023-08-06T08:31:09;19.50;99.90
11855;DHT22;5987;53.140;8.904;2023-08-06T08:34:14;20.00;99.90
11855;DHT22;5987;53.140;8.904;2023-08-06T08:37:18;20.50;99.90
11855;DHT22;5987;53.140;8.904;2023-08-06T08:40:23;20.70;99.90
11855;DHT22;5987;53.140;8.904;2023-08-06T08:43:35;20.80;99.90
11855;DHT22;5987;53.140;8.904;2023-08-06T08:46:41;20.30;99.90
11855;DHT22;5987;53.140;8.904;2023-08-06T08:49:46;20.20;99.90
11855;DHT22;5987;53.140;8.904;2023-08-06T08:52:52;20.30;99.90
11855;DHT22;5987;53.140;8.904;2023-08-06T08:55:56;20.70;99.90
11855;DHT22;5987;53.140;8.904;2023-08-06T08:59:00;21.20;99.90
11855;DHT22;5987;53.140;8.904;2023-08-06T09:02:06;21.80;99.90
11855;DHT22;5987;53.140;8.904;2023-08-06T09:05:15;22.00;99.90
11855;DHT22;5987;53.140;8.904;2023-08-06T09:08:34;21.90;99.90
11855;DHT22;5987;53.140;8.904;2023-08-06T09:11:43;21.70;99.90
11855;DHT22;5987;53.140;8.904;2023-08-06T09:14:50;21.60;99.90
11855;DHT22;5987;53.140;8.904;2023-08-06T09:17:55;21.70;99.90
11855;DHT22;5987;53.140;8.904;2023-08-06T09:21:02;21.70;99.90
11855;DHT22;5987;53.140;8.904;2023-08-06T09:24:08;22.00;99.90
11855;DHT22;5987;53.140;8.904;2023-08-06T09:27:13;22.20;99.90
11855;DHT22;5987;53.140;8.904;2023-08-06T09:30:29;22.80;99.90
11855;DHT22;5987;53.140;8.904;2023-08-06T09:33:37;23.00;99.90
11855;DHT22;5987;53.140;8.904;2023-08-06T09:36:41;22.80;99.90
11855;DHT22;5987;53.140;8.904;2023-08-06T09:39:45;22.70;99.90
11855;DHT22;5987;53.140;8.904;2023-08-06T09:42:49;23.00;99.90
11855;DHT22;5987;53.140;8.904;2023-08-06T09:45:55;23.00;99.90
11855;DHT22;5987;53.140;8.904;2023-08-06T09:49:00;22.60;99.90
11855;DHT22;5987;53.140;8.904;2023-08-06T09:52:06;22.50;99.90
11855;DHT22;5987;53.140;8.904;2023-08-06T09:55:14;22.20;99.90
11855;DHT22;5987;53.140;8.904;2023-08-06T09:58:19;22.10;99.90
11855;DHT22;5987;53.140;8.904;2023-08-06T10:01:24;22.00;99.90
11855;DHT22;5987;53.140;8.904;2023-08-06T10:04:29;22.00;99.90
11855;DHT22;5987;53.140;8.904;2023-08-06T10:07:43;21.70;99.90
11855;DHT22;5987;53.140;8.904;2023-08-06T10:10:48;21.70;99.90
11855;DHT22;5987;53.140;8.904;2023-08-06T10:14:11;21.80;99.90
11855;DHT22;5987;53.140;8.904;2023-08-06T10:17:18;21.90;99.90
11855;DHT22;5987;53.140;8.904;2023-08-06T10:20:24;21.70;99.90
11855;DHT22;5987;53.140;8.904;2023-08-06T10:23:33;21.60;99.90
11855;DHT22;5987;53.140;8.904;2023-08-06T10:26:40;21.50;99.90
11855;DHT22;5987;53.140;8.904;2023-08-06T10:29:44;21.50;99.90
11855;DHT22;5987;53.140;8.904;2023-08-06T10:32:48;21.70;99.90
11855;DHT22;5987;53.140;8.904;2023-08-06T10:36:01;21.70;99.90
11855;DHT22;5987;53.140;8.904;2023-08-06T10:39:13;21.50;99.90
11855;DHT22;5987;53.140;8.904;2023-08-06T10:42:32;21.50;99.90
11855;DHT22;5987;53.140;8.904;2023-08-06T10:45:36;21.90;99.90
11855;DHT22;5987;53.140;8.904;2023-08-06T10:48:44;22.30;99.90
11855;DHT22;5987;53.140;8.904;2023-08-06T10:51:50;22.10;99.90
11855;DHT22;5987;53.140;8.904;2023-08-06T10:54:55;21.90;99.90
11855;DHT22;5987;53.140;8.904;2023-08-06T10:57:59;22.10;99.90
11855;DHT22;5987;53.140;8.904;2023-08-06T11:01:02;22.50;99.90
11855;DHT22;5987;53.140;8.904;2023-08-06T11:04:06;22.50;99.90
11855;DHT22;5987;53.140;8.904;2023-08-06T11:07:13;22.60;99.90
11855;DHT22;5987;53.140;8.904;2023-08-06T11:10:19;22.60;99.90
11855;DHT22;5987;53.140;8.904;2023-08-06T11:13:23;22.60;99.90
11855;DHT22;5987;53.140;8.904;2023-08-06T11:16:29;22.50;99.90
11855;DHT22;5987;53.140;8.904;2023-08-06T11:19:33;22.60;99.90
11855;DHT22;5987;53.140;8.904;2023-08-06T11:22:38;22.90;99.90
11855;DHT22;5987;53.140;8.904;2023-08-06T11:25:44;23.20;99.90
11855;DHT22;5987;53.140;8.904;2023-08-06T11:28:49;23.00;99.90
11855;DHT22;5987;53.140;8.904;2023-08-06T11:31:52;22.90;99.90
11855;DHT22;5987;53.140;8.904;2023-08-06T11:34:56;22.80;99.90
11855;DHT22;5987;53.140;8.904;2023-08-06T11:38:01;22.70;99.90
11855;DHT22;5987;53.140;8.904;2023-08-06T11:41:06;22.70;99.90
11855;DHT22;5987;53.140;8.904;2023-08-06T11:44:11;22.50;99.90
11855;DHT22;5987;53.140;8.904;2023-08-06T11:47:18;22.10;99.90
11855;DHT22;5987;53.140;8.904;2023-08-06T11:50:23;22.10;99.90
11855;DHT22;5987;53.140;8.904;2023-08-06T11:53:29;22.30;99.90
11855;DHT22;5987;53.140;8.904;2023-08-06T11:56:32;22.40;99.90
11855;DHT22;5987;53.140;8.904;2023-08-06T11:59:37;22.40;99.90
11855;DHT22;5987;53.140;8.904;2023-08-06T12:02:43;22.20;99.90
11855;DHT22;5987;53.140;8.904;2023-08-06T12:05:48;22.20;99.90
11855;DHT22;5987;53.140;8.904;2023-08-06T12:08:53;22.50;99.90
11855;DHT22;5987;53.140;8.904;2023-08-06T12:11:57;23.00;99.90
11855;DHT22;5987;53.140;8.904;2023-08-06T12:15:01;23.20;99.90
11855;DHT22;5987;53.140;8.904;2023-08-06T12:18:05;23.00;99.90
11855;DHT22;5987;53.140;8.904;2023-08-06T12:21:10;22.70;99.90
11855;DHT22;5987;53.140;8.904;2023-08-06T12:24:15;22.50;99.90
11855;DHT22;5987;53.140;8.904;2023-08-06T12:27:18;22.50;99.90
11855;DHT22;5987;53.140;8.904;2023-08-06T12:30:22;22.40;99.90
11855;DHT22;5987;53.140;8.904;2023-08-06T12:33:26;22.40;99.90
11855;DHT22;5987;53.140;8.904;2023-08-06T12:36:30;22.40;99.90
11855;DHT22;5987;53.140;8.904;2023-08-06T12:39:35;22.80;99.90
11855;DHT22;5987;53.140;8.904;2023-08-06T12:42:39;23.10;99.90
11855;DHT22;5987;53.140;8.904;2023-08-06T12:45:43;23.30;99.90
11855;DHT22;5987;53.140;8.904;2023-08-06T12:48:47;22.90;99.90
11855;DHT22;5987;53.140;8.904;2023-08-06T12:51:51;22.80;99.90
11855;DHT22;5987;53.140;8.904;2023-08-06T12:54:58;23.10;99.90
11855;DHT22;5987;53.140;8.904;2023-08-06T12:58:02;23.60;99.90
11855;DHT22;5987;53.140;8.904;2023-08-06T13:01:05;23.40;99.90
11855;DHT22;5987;53.140;8.904;2023-08-06T13:04:09;23.00;99.90
11855;DHT22;5987;53.140;8.904;2023-08-06T13:07:23;22.90;99.90
11855;DHT22;5987;53.140;8.904;2023-08-06T13:10:29;22.80;99.90
11855;DHT22;5987;53.140;8.904;2023-08-06T13:13:33;22.80;99.90
11855;DHT22;5987;53.140;8.904;2023-08-06T13:16:37;22.70;99.90
11855;DHT22;5987;53.140;8.904;2023-08-06T13:19:42;22.60;99.90
11855;DHT22;5987;53.140;8.904;2023-08-06T13:22:46;22.70;99.90
11855;DHT22;5987;53.140;8.904;2023-08-06T13:25:54;22.60;99.90
11855;DHT22;5987;53.140;8.904;2023-08-06T13:28:58;22.50;99.90
11855;DHT22;5987;53.140;8.904;2023-08-06T13:32:02;22.40;99.90
11855;DHT22;5987;53.140;8.904;2023-08-06T13:35:07;22.50;99.90
11855;DHT22;5987;53.140;8.904;2023-08-06T13:38:10;22.30;99.90
11855;DHT22;5987;53.140;8.904;2023-08-06T13:41:16;22.20;99.90
11855;DHT22;5987;53.140;8.904;2023-08-06T13:44:20;22.20;99.90
11855;DHT22;5987;53.140;8.904;2023-08-06T13:47:23;22.10;99.90
11855;DHT22;5987;53.140;8.904;2023-08-06T13:50:27;22.00;99.90
11855;DHT22;5987;53.140;8.904;2023-08-06T13:53:31;22.10;99.90
11855;DHT22;5987;53.140;8.904;2023-08-06T13:56:36;22.20;99.90
11855;DHT22;5987;53.140;8.904;2023-08-06T13:59:39;22.40;99.90
11855;DHT22;5987;53.140;8.904;2023-08-06T14:02:45;22.20;99.90
11855;DHT22;5987;53.140;8.904;2023-08-06T14:05:50;22.10;99.90
11855;DHT22;5987;53.140;8.904;2023-08-06T14:08:55;22.10;99.90
11855;DHT22;5987;53.140;8.904;2023-08-06T14:12:00;22.10;99.90
11855;DHT22;5987;53.140;8.904;2023-08-06T14:15:06;22.10;99.90
11855;DHT22;5987;53.140;8.904;2023-08-06T14:18:10;22.10;99.90
11855;DHT22;5987;53.140;8.904;2023-08-06T14:21:13;22.10;99.90
11855;DHT22;5987;53.140;8.904;2023-08-06T14:24:30;22.10;99.90
11855;DHT22;5987;53.140;8.904;2023-08-06T14:27:37;22.10;99.90
11855;DHT22;5987;53.140;8.904;2023-08-06T14:30:48;22.00;99.90
11855;DHT22;5987;53.140;8.904;2023-08-06T14:33:52;22.00;99.90
11855;DHT22;5987;53.140;8.904;2023-08-06T14:36:55;21.90;99.90
11855;DHT22;5987;53.140;8.904;2023-08-06T14:40:01;22.10;99.90
11855;DHT22;5987;53.140;8.904;2023-08-06T14:43:06;22.40;99.90
11855;DHT22;5987;53.140;8.904;2023-08-06T14:46:13;22.70;99.90
11855;DHT22;5987;53.140;8.904;2023-08-06T14:49:17;22.90;99.90
11855;DHT22;5987;53.140;8.904;2023-08-06T14:52:20;23.00;99.90
11855;DHT22;5987;53.140;8.904;2023-08-06T14:55:24;23.20;99.90
11855;DHT22;5987;53.140;8.904;2023-08-06T14:58:29;23.20;99.90
11855;DHT22;5987;53.140;8.904;2023-08-06T15:01:33;22.80;99.90
11855;DHT22;5987;53.140;8.904;2023-08-06T15:04:37;22.80;99.90
11855;DHT22;5987;53.140;8.904;2023-08-06T15:07:40;22.70;99.90
11855;DHT22;5987;53.140;8.904;2023-08-06T15:10:49;22.50;99.90
11855;DHT22;5987;53.140;8.904;2023-08-06T15:13:55;22.30;99.90
11855;DHT22;5987;53.140;8.904;2023-08-06T15:17:00;22.10;99.90
11855;DHT22;5987;53.140;8.904;2023-08-06T15:20:04;22.00;99.90
11855;DHT22;5987;53.140;8.904;2023-08-06T15:23:09;22.20;99.90
11855;DHT22;5987;53.140;8.904;2023-08-06T15:26:12;22.40;99.90
11855;DHT22;5987;53.140;8.904;2023-08-06T15:29:17;22.60;99.90
11855;DHT22;5987;53.140;8.904;2023-08-06T15:32:20;22.80;99.90
11855;DHT22;5987;53.140;8.904;2023-08-06T15:35:25;22.80;99.90
11855;DHT22;5987;53.140;8.904;2023-08-06T15:38:28;22.60;99.90
11855;DHT22;5987;53.140;8.904;2023-08-06T15:41:32;22.50;99.90
11855;DHT22;5987;53.140;8.904;2023-08-06T15:44:37;22.40;99.90
11855;DHT22;5987;53.140;8.904;2023-08-06T15:47:40;22.20;99.90
11855;DHT22;5987;53.140;8.904;2023-08-06T15:50:44;22.20;99.90
11855;DHT22;5987;53.140;8.904;2023-08-06T15:53:48;22.10;99.90
11855;DHT22;5987;53.140;8.904;2023-08-06T15:56:51;22.10;99.90
11855;DHT22;5987;53.140;8.904;2023-08-06T15:59:57;21.90;99.90
11855;DHT22;5987;53.140;8.904;2023-08-06T16:03:01;21.80;99.90
11855;DHT22;5987;53.140;8.904;2023-08-06T16:06:05;21.60;99.90
11855;DHT22;5987;53.140;8.904;2023-08-06T16:09:09;21.50;99.90
11855;DHT22;5987;53.140;8.904;2023-08-06T16:12:13;21.20;99.90
11855;DHT22;5987;53.140;8.904;2023-08-06T16:15:30;21.00;99.90
11855;DHT22;5987;53.140;8.904;2023-08-06T16:18:33;21.00;99.90
11855;DHT22;5987;53.140;8.904;2023-08-06T16:21:37;20.80;99.90
11855;DHT22;5987;53.140;8.904;2023-08-06T16:24:41;20.70;99.90
11855;DHT22;5987;53.140;8.904;2023-08-06T16:27:45;20.60;99.90
11855;DHT22;5987;53.140;8.904;2023-08-06T16:30:50;20.60;99.90
11855;DHT22;5987;53.140;8.904;2023-08-06T16:33:55;20.60;99.90
11855;DHT22;5987;53.140;8.904;2023-08-06T16:36:59;20.70;99.90
11855;DHT22;5987;53.140;8.904;2023-08-06T16:40:04;20.90;99.90
11855;DHT22;5987;53.140;8.904;2023-08-06T16:43:11;21.00;99.90
11855;DHT22;5987;53.140;8.904;2023-08-06T16:46:16;21.10;99.90
11855;DHT22;5987;53.140;8.904;2023-08-06T16:49:20;21.20;99.90
11855;DHT22;5987;53.140;8.904;2023-08-06T16:52:24;21.10;99.90
11855;DHT22;5987;53.140;8.904;2023-08-06T16:55:30;21.10;99.90
11855;DHT22;5987;53.140;8.904;2023-08-06T16:58:34;21.10;99.90
11855;DHT22;5987;53.140;8.904;2023-08-06T17:01:39;21.00;99.90
11855;DHT22;5987;53.140;8.904;2023-08-06T17:04:44;20.90;99.90
11855;DHT22;5987;53.140;8.904;2023-08-06T17:07:47;20.80;99.90
11855;DHT22;5987;53.140;8.904;2023-08-06T17:10:52;20.70;99.90
11855;DHT22;5987;53.140;8.904;2023-08-06T17:13:55;20.60;99.90
11855;DHT22;5987;53.140;8.904;2023-08-06T17:17:00;20.40;99.90
11855;DHT22;5987;53.140;8.904;2023-08-06T17:20:04;20.30;99.90
11855;DHT22;5987;53.140;8.904;2023-08-06T17:23:09;20.20;99.90
11855;DHT22;5987;53.140;8.904;2023-08-06T17:26:13;20.10;99.90
11855;DHT22;5987;53.140;8.904;2023-08-06T17:29:16;20.10;99.90
11855;DHT22;5987;53.140;8.904;2023-08-06T17:32:22;19.90;99.90
11855;DHT22;5987;53.140;8.904;2023-08-06T17:35:26;19.90;99.90
11855;DHT22;5987;53.140;8.904;2023-08-06T17:38:31;19.90;99.90
11855;DHT22;5987;53.140;8.904;2023-08-06T17:41:35;19.80;99.90
11855;DHT22;5987;53.140;8.904;2023-08-06T17:44:39;19.80;99.90
11855;DHT22;5987;53.140;8.904;2023-08-06T17:47:44;19.70;99.90
11855;DHT22;5987;53.140;8.904;2023-08-06T17:50:49;19.70;99.90
11855;DHT22;5987;53.140;8.904;2023-08-06T17:53:53;19.70;99.90
11855;DHT22;5987;53.140;8.904;2023-08-06T17:56:56;19.60;99.90
11855;DHT22;5987;53.140;8.904;2023-08-06T18:00:01;19.50;99.90
11855;DHT22;5987;53.140;8.904;2023-08-06T18:03:07;19.30;99.90
11855;DHT22;5987;53.140;8.904;2023-08-06T18:06:11;19.30;99.90
11855;DHT22;5987;53.140;8.904;2023-08-06T18:09:14;19.30;99.90
11855;DHT22;5987;53.140;8.904;2023-08-06T18:12:18;19.20;99.90
11855;DHT22;5987;53.140;8.904;2023-08-06T18:15:22;19.20;99.90
11855;DHT22;5987;53.140;8.904;2023-08-06T18:18:27;19.20;99.90
11855;DHT22;5987;53.140;8.904;2023-08-06T18:21:30;19.20;99.90
11855;DHT22;5987;53.140;8.904;2023-08-06T18:24:34;19.20;99.90
11855;DHT22;5987;53.140;8.904;2023-08-06T18:27:38;19.20;99.90
11855;DHT22;5987;53.140;8.904;2023-08-06T18:30:45;19.20;99.90
11855;DHT22;5987;53.140;8.904;2023-08-06T18:33:50;19.10;99.90
11855;DHT22;5987;53.140;8.904;2023-08-06T18:36:54;19.10;99.90
11855;DHT22;5987;53.140;8.904;2023-08-06T18:39:58;18.90;99.90
11855;DHT22;5987;53.140;8.904;2023-08-06T18:43:04;18.80;99.90
11855;DHT22;5987;53.140;8.904;2023-08-06T18:46:10;18.60;99.90
11855;DHT22;5987;53.140;8.904;2023-08-06T18:49:15;18.50;99.90
11855;DHT22;5987;53.140;8.904;2023-08-06T18:52:19;18.40;99.90
11855;DHT22;5987;53.140;8.904;2023-08-06T18:55:23;18.20;99.90
11855;DHT22;5987;53.140;8.904;2023-08-06T18:58:27;18.10;99.90
11855;DHT22;5987;53.140;8.904;2023-08-06T19:01:30;18.00;99.90
11855;DHT22;5987;53.140;8.904;2023-08-06T19:04:35;18.00;99.90
11855;DHT22;5987;53.140;8.904;2023-08-06T19:07:40;17.90;99.90
11855;DHT22;5987;53.140;8.904;2023-08-06T19:10:43;17.80;99.90
11855;DHT22;5987;53.140;8.904;2023-08-06T19:13:48;17.70;99.90
11855;DHT22;5987;53.140;8.904;2023-08-06T19:16:51;17.70;99.90
11855;DHT22;5987;53.140;8.904;2023-08-06T19:19:59;17.60;99.90
11855;DHT22;5987;53.140;8.904;2023-08-06T19:23:02;17.50;99.90
11855;DHT22;5987;53.140;8.904;2023-08-06T19:26:06;17.50;99.90
11855;DHT22;5987;53.140;8.904;2023-08-06T19:29:10;17.50;99.90
11855;DHT22;5987;53.140;8.904;2023-08-06T19:32:14;17.50;99.90
11855;DHT22;5987;53.140;8.904;2023-08-06T19:35:20;17.40;99.90
11855;DHT22;5987;53.140;8.904;2023-08-06T19:38:25;17.40;99.90
11855;DHT22;5987;53.140;8.904;2023-08-06T19:41:29;17.40;99.90
11855;DHT22;5987;53.140;8.904;2023-08-06T19:44:33;17.30;99.90